createdAt,value
2022-09-02T00:01:47.604Z,0.85
2022-09-02T00:04:18.103Z,0.50
2022-09-02T00:06:46.453Z,0.63
2022-09-02T00:09:15.598Z,0.50
2022-09-02T00:11:43.719Z,0.60
2022-09-02T00:14:16.442Z,0.57
2022-09-02T00:16:45.262Z,0.60
2022-09-02T00:19:12.016Z,0.80
2022-09-02T00:21:38.658Z,0.57
2022-09-02T00:24:05.970Z,0.63
2022-09-02T00:26:32.908Z,0.70
2022-09-02T00:28:59.554Z,0.65
2022-09-02T00:31:29.045Z,0.70
2022-09-02T00:33:56.340Z,0.70
2022-09-02T00:36:22.980Z,0.60
2022-09-02T00:38:49.914Z,0.68
2022-09-02T00:41:18.830Z,0.65
2022-09-02T00:44:03.932Z,0.77
2022-09-02T00:46:32.196Z,0.80
2022-09-02T00:49:12.632Z,0.80
2022-09-02T00:51:54.990Z,0.75
2022-09-02T00:54:24.168Z,0.63
2022-09-02T00:56:53.906Z,0.40
2022-09-02T00:59:43.439Z,0.63
2022-09-02T01:02:10.953Z,0.50
2022-09-02T01:04:37.623Z,0.60
2022-09-02T01:07:04.487Z,0.70
2022-09-02T01:09:33.402Z,0.52
2022-09-02T01:12:03.095Z,0.55
2022-09-02T01:14:30.361Z,0.73
2022-09-02T01:17:01.394Z,0.60
2022-09-02T01:19:53.504Z,0.73
2022-09-02T01:22:24.110Z,0.60
2022-09-02T01:24:50.773Z,0.60
2022-09-02T01:27:21.860Z,0.60
2022-09-02T01:29:57.749Z,0.80
2022-09-02T01:32:25.549Z,0.60
2022-09-02T01:34:52.177Z,0.50
2022-09-02T01:37:19.785Z,0.80
2022-09-02T01:39:46.867Z,0.50
2022-09-02T01:42:14.522Z,0.60
2022-09-02T01:44:45.275Z,0.63
2022-09-02T01:47:14.938Z,0.68
2022-09-02T01:49:41.953Z,0.45
2022-09-02T01:52:09.207Z,0.80
2022-09-02T01:54:37.035Z,0.60
2022-09-02T01:57:03.693Z,0.68
2022-09-02T01:59:30.999Z,0.70
2022-09-02T02:01:58.457Z,0.77
2022-09-02T02:04:25.371Z,0.70
2022-09-02T02:06:53.510Z,0.70
2022-09-02T02:09:21.712Z,0.68
2022-09-02T02:11:50.117Z,0.50
2022-09-02T02:14:17.763Z,0.55
2022-09-02T02:16:49.011Z,0.63
2022-09-02T02:19:15.569Z,0.80
2022-09-02T02:21:42.695Z,0.55
2022-09-02T02:24:09.651Z,0.65
2022-09-02T02:26:36.878Z,0.75
2022-09-02T02:29:05.028Z,0.70
2022-09-02T02:31:32.360Z,0.80
2022-09-02T02:33:59.813Z,0.60
2022-09-02T02:36:26.566Z,0.70
2022-09-02T02:38:53.392Z,0.70
2022-09-02T02:41:20.766Z,0.80
2022-09-02T02:43:47.896Z,0.65
2022-09-02T02:46:15.632Z,0.80
2022-09-02T02:48:42.697Z,0.85
2022-09-02T02:51:10.382Z,0.88
2022-09-02T02:53:38.341Z,0.93
2022-09-02T02:56:05.837Z,1.00
2022-09-02T02:58:32.521Z,1.00
2022-09-02T03:01:00.902Z,0.70
2022-09-02T03:03:29.116Z,0.95
2022-09-02T03:05:57.737Z,0.60
2022-09-02T03:08:26.806Z,0.80
2022-09-02T03:10:55.584Z,0.95
2022-09-02T03:13:26.088Z,0.80
2022-09-02T03:15:54.288Z,0.98
2022-09-02T03:18:22.263Z,1.10
2022-09-02T03:20:50.055Z,0.80
2022-09-02T03:23:17.957Z,1.20
2022-09-02T03:25:47.761Z,1.10
2022-09-02T03:28:27.008Z,0.90
2022-09-02T03:30:54.365Z,1.17
2022-09-02T03:33:22.292Z,0.80
2022-09-02T03:35:48.931Z,1.08
2022-09-02T03:38:15.678Z,1.08
2022-09-02T03:40:44.263Z,0.80
2022-09-02T03:43:10.955Z,1.27
2022-09-02T03:45:41.624Z,1.00
2022-09-02T03:48:13.467Z,0.90
2022-09-02T03:50:44.692Z,1.02
2022-09-02T03:53:18.354Z,0.98
2022-09-02T03:55:50.935Z,1.10
2022-09-02T03:58:19.811Z,1.02
2022-09-02T04:00:52.838Z,1.20
2022-09-02T04:03:21.656Z,1.08
2022-09-02T04:05:50.823Z,0.82
2022-09-02T04:08:19.380Z,1.13
2022-09-02T04:10:46.848Z,1.15
2022-09-02T04:13:13.443Z,1.10
2022-09-02T04:15:47.946Z,1.10
2022-09-02T04:18:17.481Z,0.90
2022-09-02T04:20:44.898Z,1.00
2022-09-02T04:23:12.197Z,1.00
2022-09-02T04:25:43.234Z,0.93
2022-09-02T04:28:11.159Z,1.00
2022-09-02T04:30:42.124Z,1.27
2022-09-02T04:33:09.797Z,1.00
2022-09-02T04:35:43.915Z,1.30
2022-09-02T04:38:14.178Z,1.30
2022-09-02T04:40:46.131Z,1.17
2022-09-02T04:43:14.512Z,1.30
2022-09-02T04:45:43.391Z,1.40
2022-09-02T04:48:12.309Z,1.10
2022-09-02T04:50:41.964Z,1.27
2022-09-02T04:53:09.577Z,1.02
2022-09-02T04:55:39.835Z,1.20
2022-09-02T04:58:10.104Z,1.10
2022-09-02T05:00:39.069Z,1.10
2022-09-02T05:03:08.144Z,1.10
2022-09-02T05:05:35.502Z,1.20
2022-09-02T05:08:04.640Z,1.30
2022-09-02T05:10:33.360Z,1.20
2022-09-02T05:13:00.795Z,1.48
2022-09-02T05:15:28.856Z,1.00
2022-09-02T05:17:55.506Z,0.90
2022-09-02T05:20:22.120Z,1.05
2022-09-02T05:22:51.261Z,1.45
2022-09-02T05:25:18.554Z,1.33
2022-09-02T05:27:45.964Z,1.38
2022-09-02T05:30:12.727Z,1.58
2022-09-02T05:32:41.266Z,1.30
2022-09-02T05:35:08.726Z,1.25
2022-09-02T05:37:36.519Z,1.30
2022-09-02T05:40:05.747Z,0.90
2022-09-02T05:42:36.182Z,1.20
2022-09-02T05:45:04.509Z,1.20
2022-09-02T05:47:34.196Z,1.20
2022-09-02T05:50:03.916Z,1.17
2022-09-02T05:52:34.155Z,1.10
2022-09-02T05:55:01.126Z,1.10
2022-09-02T05:57:27.615Z,1.00
2022-09-02T06:00:00.696Z,1.13
2022-09-02T06:02:40.173Z,1.30
2022-09-02T06:05:12.079Z,1.15
2022-09-02T06:07:42.562Z,1.48
2022-09-02T06:10:09.305Z,1.13
2022-09-02T06:12:40.604Z,1.00
2022-09-02T06:15:10.339Z,1.20
2022-09-02T06:17:38.778Z,1.45
2022-09-02T06:20:06.235Z,1.50
2022-09-02T06:22:33.286Z,1.30
2022-09-02T06:24:59.898Z,1.30
2022-09-02T06:27:27.196Z,1.63
2022-09-02T06:29:55.139Z,1.30
2022-09-02T06:32:24.284Z,1.17
2022-09-02T06:34:56.361Z,1.27
2022-09-02T06:37:25.099Z,1.40
2022-09-02T06:39:52.010Z,1.40
2022-09-02T06:42:23.941Z,1.33
2022-09-02T06:45:07.789Z,1.25
2022-09-02T06:47:35.724Z,1.30
2022-09-02T06:50:02.888Z,0.93
2022-09-02T06:52:29.876Z,1.40
2022-09-02T06:54:56.657Z,1.40
2022-09-02T06:57:24.678Z,1.40
2022-09-02T07:00:01.841Z,1.65
2022-09-02T07:02:32.367Z,1.08
2022-09-02T07:05:11.637Z,1.20
2022-09-02T07:07:41.396Z,1.02
2022-09-02T07:10:13.758Z,1.25
2022-09-02T07:12:44.168Z,1.20
2022-09-02T07:15:14.701Z,1.10
2022-09-02T07:17:42.629Z,1.45
2022-09-02T07:20:13.882Z,1.13
2022-09-02T07:25:19.798Z,1.25
2022-09-02T07:27:51.323Z,1.38
2022-09-02T07:30:18.311Z,1.60
2022-09-02T07:32:47.998Z,1.40
2022-09-02T07:35:15.948Z,1.10
2022-09-02T07:37:43.560Z,1.30
2022-09-02T07:40:11.543Z,1.23
2022-09-02T07:42:38.579Z,1.00
2022-09-02T07:45:06.753Z,1.00
2022-09-02T07:47:34.764Z,1.20
2022-09-02T07:50:21.521Z,1.10
2022-09-02T07:52:58.146Z,1.30
2022-09-02T07:55:27.551Z,1.35
2022-09-02T07:57:55.672Z,1.10
2022-09-02T08:00:27.400Z,1.15
2022-09-02T08:02:55.697Z,0.95
2022-09-02T08:05:28.530Z,1.00
2022-09-02T08:07:55.089Z,1.20
2022-09-02T08:10:23.381Z,0.80
2022-09-02T08:12:51.312Z,0.93
2022-09-02T08:15:20.065Z,0.80
2022-09-02T08:17:47.681Z,1.30
2022-09-02T08:20:17.903Z,0.82
2022-09-02T08:22:47.943Z,1.00
2022-09-02T08:25:21.154Z,0.82
2022-09-02T08:27:49.417Z,0.90
2022-09-02T08:30:16.067Z,0.95
2022-09-02T08:32:42.578Z,0.88
2022-09-02T08:35:10.721Z,0.93
2022-09-02T08:37:38.312Z,1.13
2022-09-02T08:40:08.245Z,0.98
2022-09-02T08:42:44.654Z,1.10
2022-09-02T08:45:30.440Z,1.00
2022-09-02T08:48:27.914Z,0.65
2022-09-02T08:51:01.053Z,0.70
2022-09-02T08:53:36.347Z,0.70
2022-09-02T08:56:05.772Z,1.10
2022-09-02T08:58:42.283Z,1.00
2022-09-02T09:01:25.859Z,0.95
2022-09-02T09:04:12.279Z,0.80
2022-09-02T09:06:55.929Z,0.98
2022-09-02T09:09:45.474Z,1.00
2022-09-02T09:12:37.171Z,1.17
2022-09-02T09:15:16.492Z,0.80
2022-09-02T09:17:59.435Z,0.70
2022-09-02T09:20:32.966Z,0.70
2022-09-02T09:23:01.859Z,1.02
2022-09-02T09:25:32.597Z,0.70
2022-09-02T09:28:00.727Z,0.47
2022-09-02T09:30:28.432Z,0.80
2022-09-02T09:32:59.810Z,0.80
2022-09-02T09:35:27.769Z,0.45
2022-09-02T09:37:55.898Z,0.73
2022-09-02T09:40:31.727Z,0.80
2022-09-02T09:43:14.650Z,0.80
2022-09-02T09:45:49.925Z,0.65
2022-09-02T09:48:33.433Z,0.60
2022-09-02T09:50:59.887Z,0.60
2022-09-02T09:53:28.868Z,0.80
2022-09-02T09:56:07.547Z,0.88
2022-09-02T09:58:40.090Z,0.80
2022-09-02T10:01:18.403Z,0.73
2022-09-02T10:03:55.751Z,0.70
2022-09-02T10:06:31.735Z,0.88
2022-09-02T10:09:15.761Z,0.90
2022-09-02T10:11:56.862Z,0.65
2022-09-02T10:14:26.585Z,0.80
2022-09-02T10:17:07.819Z,0.55
2022-09-02T10:20:04.644Z,0.60
2022-09-02T10:22:59.416Z,0.80
2022-09-02T10:25:43.607Z,0.60
2022-09-02T10:28:31.129Z,1.00
2022-09-02T10:31:26.375Z,0.88
2022-09-02T10:34:16.063Z,0.43
2022-09-02T10:37:09.286Z,0.52
2022-09-02T10:39:58.674Z,0.70
2022-09-02T10:42:34.565Z,0.70
2022-09-02T10:45:17.935Z,0.65
2022-09-02T10:48:03.638Z,0.75
2022-09-02T10:50:55.568Z,0.70
2022-09-02T10:53:46.451Z,0.60
2022-09-02T10:56:19.114Z,0.70
2022-09-02T10:58:50.021Z,0.50
2022-09-02T11:01:22.945Z,0.90
2022-09-02T11:04:12.737Z,1.00
2022-09-02T11:07:01.891Z,0.88
2022-09-02T11:09:42.044Z,0.60
2022-09-02T11:12:16.724Z,0.82
2022-09-02T11:15:04.644Z,0.45
2022-09-02T11:17:38.541Z,0.60
2022-09-02T11:20:14.189Z,0.80
2022-09-02T11:22:54.470Z,0.70
2022-09-02T11:25:44.981Z,0.70
2022-09-02T11:28:33.041Z,0.77
2022-09-02T11:31:24.720Z,0.60
2022-09-02T11:34:35.875Z,0.80
2022-09-02T11:37:05.025Z,0.70
2022-09-02T11:39:53.943Z,0.70
2022-09-02T11:42:50.660Z,0.60
2022-09-02T11:45:30.700Z,0.52
2022-09-02T11:48:17.443Z,0.55
2022-09-02T11:50:50.032Z,0.77
2022-09-02T11:53:31.653Z,0.65
2022-09-02T11:56:16.592Z,0.60
2022-09-02T11:58:49.566Z,0.55
2022-09-02T12:01:16.218Z,0.52
2022-09-02T12:04:16.276Z,0.73
2022-09-02T12:06:37.590Z,0.65
2022-09-02T12:09:09.590Z,0.50
2022-09-02T12:11:42.336Z,0.60
2022-09-02T12:14:25.585Z,0.70
2022-09-02T12:17:03.811Z,0.77
2022-09-02T12:19:42.415Z,0.77
2022-09-02T12:22:16.279Z,0.55
2022-09-02T12:24:55.201Z,0.60
2022-09-02T12:27:25.753Z,0.68
2022-09-02T12:29:53.401Z,0.50
2022-09-02T12:33:09.712Z,0.65
2022-09-02T12:35:51.558Z,0.60
2022-09-02T12:38:27.618Z,0.57
2022-09-02T12:40:56.528Z,0.50
2022-09-02T12:43:31.058Z,0.55
2022-09-02T12:46:05.208Z,0.50
2022-09-02T12:48:42.555Z,0.60
2022-09-02T12:51:09.154Z,0.50
2022-09-02T12:53:40.091Z,0.60
2022-09-02T12:56:21.190Z,0.65
2022-09-02T12:58:51.331Z,0.50
2022-09-02T13:01:33.230Z,0.82
2022-09-02T13:04:15.307Z,0.40
2022-09-02T13:07:11.668Z,0.70
2022-09-02T13:09:50.029Z,0.55
2022-09-02T13:12:52.285Z,0.43
2022-09-02T13:15:23.791Z,0.38
2022-09-02T13:18:25.455Z,0.60
2022-09-02T13:21:07.056Z,0.50
2022-09-02T13:24:12.477Z,0.68
2022-09-02T13:26:54.959Z,0.50
2022-09-02T13:29:36.845Z,0.40
2022-09-02T13:32:22.161Z,0.60
2022-09-02T13:34:51.327Z,0.35
2022-09-02T13:37:38.023Z,0.47
2022-09-02T13:40:24.799Z,0.32
2022-09-02T13:42:55.271Z,0.40
2022-09-02T13:45:24.519Z,0.40
2022-09-02T13:47:54.650Z,0.40
2022-09-02T13:50:30.164Z,0.40
2022-09-02T13:55:55.657Z,0.40
2022-09-02T13:58:32.737Z,0.40
2022-09-02T14:01:38.313Z,0.50
2022-09-02T14:04:10.313Z,0.40
2022-09-02T14:06:47.608Z,0.30
2022-09-02T14:09:28.902Z,0.30
2022-09-02T14:11:57.063Z,0.30
2022-09-02T14:14:25.007Z,0.30
2022-09-02T14:16:52.636Z,0.30
2022-09-02T14:19:21.929Z,0.30
2022-09-02T14:21:58.651Z,0.32
2022-09-02T14:24:27.956Z,0.20
2022-09-02T14:26:56.934Z,0.30
2022-09-02T14:29:24.849Z,0.40
2022-09-02T14:32:14.170Z,0.30
2022-09-02T14:34:46.427Z,0.47
2022-09-02T14:37:31.019Z,0.57
2022-09-02T14:40:12.669Z,0.28
2022-09-02T14:42:56.626Z,0.30
2022-09-02T14:45:34.995Z,0.40
2022-09-02T14:48:24.947Z,0.45
2022-09-02T14:51:02.736Z,0.20
2022-09-02T14:53:30.178Z,0.40
2022-09-02T14:55:57.605Z,0.45
2022-09-02T14:58:27.499Z,0.50
2022-09-02T15:00:58.050Z,0.40
2022-09-02T15:03:25.754Z,0.40
2022-09-02T15:05:53.743Z,0.50
2022-09-02T15:08:20.672Z,0.40
2022-09-02T15:10:47.580Z,0.43
2022-09-02T15:13:25.723Z,0.40
2022-09-02T15:15:53.142Z,0.43
2022-09-02T15:18:20.119Z,0.45
2022-09-02T15:20:46.751Z,0.60
2022-09-02T15:23:13.380Z,0.60
2022-09-02T15:25:39.896Z,0.50
2022-09-02T15:28:06.461Z,0.60
2022-09-02T15:30:36.230Z,0.60
2022-09-02T15:33:04.661Z,0.30
2022-09-02T15:35:34.598Z,0.40
2022-09-02T15:38:02.914Z,0.60
2022-09-02T15:40:31.740Z,0.90
2022-09-02T15:43:00.117Z,0.60
2022-09-02T15:45:28.096Z,0.40
2022-09-02T15:47:58.349Z,0.50
2022-09-02T15:50:25.206Z,0.40
2022-09-02T15:52:55.994Z,0.50
2022-09-02T15:55:26.784Z,0.50
2022-09-02T15:57:56.632Z,0.40
2022-09-02T16:00:27.737Z,0.60
2022-09-02T16:02:57.029Z,0.40
2022-09-02T16:05:24.174Z,0.30
2022-09-02T16:07:52.108Z,0.50
2022-09-02T16:10:18.612Z,0.38
2022-09-02T16:12:45.483Z,0.25
2022-09-02T16:15:12.009Z,0.40
2022-09-02T16:17:38.621Z,0.55
2022-09-02T16:20:05.606Z,0.47
2022-09-02T16:22:32.240Z,0.40
2022-09-02T16:24:58.838Z,0.40
2022-09-02T16:27:43.869Z,0.50
2022-09-02T16:30:11.341Z,0.60
2022-09-02T16:32:37.872Z,0.40
2022-09-02T16:35:04.646Z,0.22
2022-09-02T16:37:31.210Z,0.35
2022-09-02T16:39:57.782Z,0.30
2022-09-02T16:42:24.696Z,0.47
2022-09-02T16:44:51.929Z,0.38
2022-09-02T16:47:18.766Z,0.50
2022-09-02T16:49:46.300Z,0.50
2022-09-02T16:52:13.068Z,0.30
2022-09-02T16:54:40.998Z,0.30
2022-09-02T16:57:08.177Z,0.38
2022-09-02T16:59:34.754Z,0.55
2022-09-02T17:02:01.580Z,0.30
2022-09-02T17:04:29.500Z,0.63
2022-09-02T17:06:56.796Z,0.40
2022-09-02T17:09:23.462Z,0.30
2022-09-02T17:11:50.110Z,0.50
2022-09-02T17:14:21.545Z,0.70
2022-09-02T17:16:50.087Z,0.40
2022-09-02T17:19:22.393Z,0.40
2022-09-02T17:21:51.234Z,0.65
2022-09-02T17:24:19.396Z,0.40
2022-09-02T17:26:48.387Z,0.30
2022-09-02T17:29:47.073Z,0.40
2022-09-02T17:32:04.710Z,0.52
2022-09-02T17:34:33.344Z,0.35
2022-09-02T17:36:59.977Z,0.30
2022-09-02T17:39:26.881Z,0.55
2022-09-02T17:41:59.814Z,0.40
2022-09-02T17:44:35.321Z,0.40
2022-09-02T17:47:05.779Z,0.60
2022-09-02T17:49:34.659Z,0.43
2022-09-02T17:52:01.588Z,0.40
2022-09-02T17:54:28.267Z,0.77
2022-09-02T17:57:04.966Z,0.30
2022-09-02T18:00:08.166Z,0.50
2022-09-02T18:02:36.489Z,0.77
2022-09-02T18:05:14.150Z,0.60
2022-09-02T18:07:44.281Z,0.50
2022-09-02T18:10:14.101Z,0.50
2022-09-02T18:12:42.840Z,0.40
2022-09-02T18:15:14.295Z,0.60
2022-09-02T18:17:45.836Z,0.60
2022-09-02T18:20:19.577Z,0.40
2022-09-02T18:22:55.225Z,0.52
2022-09-02T18:25:48.594Z,0.60
2022-09-02T18:28:27.258Z,0.70
2022-09-02T18:31:19.022Z,0.60
2022-09-02T18:33:54.481Z,0.60
2022-09-02T18:36:31.781Z,0.77
2022-09-02T18:39:36.230Z,0.70
2022-09-02T18:42:19.725Z,0.77
2022-09-02T18:45:04.413Z,0.52
2022-09-02T18:47:38.839Z,0.77
2022-09-02T18:50:07.063Z,0.68
2022-09-02T18:52:36.285Z,0.80
2022-09-02T18:55:07.309Z,0.93
2022-09-02T18:57:38.762Z,0.73
2022-09-02T19:00:11.635Z,0.60
2022-09-02T19:03:05.267Z,0.60
2022-09-02T19:05:35.355Z,0.80
2022-09-02T19:08:25.967Z,0.70
2022-09-02T19:11:14.784Z,0.68
2022-09-02T19:13:49.747Z,1.25
2022-09-02T19:16:18.864Z,1.30
2022-09-02T19:18:46.489Z,1.10
2022-09-02T19:21:18.831Z,1.08
2022-09-02T19:23:48.086Z,1.08
2022-09-02T19:26:14.923Z,0.65
2022-09-02T19:28:41.926Z,0.68
2022-09-02T19:31:18.056Z,0.60
2022-09-02T19:33:44.893Z,0.70
2022-09-02T19:36:11.676Z,0.65
2022-09-02T19:38:39.051Z,0.85
2022-09-02T19:41:05.629Z,0.88
2022-09-02T19:43:32.126Z,0.77
2022-09-02T19:46:01.298Z,0.77
2022-09-02T19:48:27.856Z,0.80
2022-09-02T19:50:55.178Z,1.05
2022-09-02T19:53:27.932Z,0.80
2022-09-02T19:55:54.471Z,0.88
2022-09-02T19:58:21.265Z,0.57
2022-09-02T20:00:48.358Z,0.77
2022-09-02T20:03:15.303Z,0.70
2022-09-02T20:05:42.104Z,0.60
2022-09-02T20:08:09.191Z,0.82
2022-09-02T20:10:37.793Z,0.82
2022-09-02T20:13:05.497Z,1.10
2022-09-02T20:15:36.899Z,0.85
2022-09-02T20:18:15.156Z,0.93
2022-09-02T20:20:43.715Z,0.75
2022-09-02T20:23:13.923Z,1.13
2022-09-02T20:26:17.205Z,0.90
2022-09-02T20:29:07.855Z,1.10
2022-09-02T20:32:04.607Z,1.10
2022-09-02T20:35:01.440Z,0.98
2022-09-02T20:37:32.235Z,0.77
2022-09-02T20:40:31.744Z,1.02
2022-09-02T20:43:09.421Z,0.90
2022-09-02T20:45:45.422Z,0.88
2022-09-02T20:48:30.189Z,1.00
2022-09-02T20:51:04.393Z,0.70
2022-09-02T20:53:49.415Z,0.70
2022-09-02T20:56:34.850Z,0.90
2022-09-02T20:59:01.334Z,0.77
2022-09-02T21:01:33.526Z,0.88
2022-09-02T21:04:25.946Z,1.00
2022-09-02T21:07:01.188Z,1.00
2022-09-02T21:09:27.576Z,0.80
2022-09-02T21:12:03.789Z,0.80
2022-09-02T21:15:02.024Z,0.85
2022-09-02T21:17:39.157Z,0.90
2022-09-02T21:20:23.226Z,1.10
2022-09-02T21:22:58.317Z,0.90
2022-09-02T21:25:40.275Z,0.93
2022-09-02T21:28:17.646Z,0.88
2022-09-02T21:30:48.900Z,0.65
2022-09-02T21:33:17.066Z,1.08
2022-09-02T21:35:51.088Z,1.13
2022-09-02T21:38:36.885Z,1.00
2022-09-02T21:41:12.467Z,0.80
2022-09-02T21:43:48.400Z,0.70
2022-09-02T21:46:46.938Z,0.75
2022-09-02T21:49:45.955Z,1.10
2022-09-02T21:52:41.678Z,0.90
2022-09-02T21:55:17.935Z,0.80
2022-09-02T21:57:57.046Z,1.15
2022-09-02T22:00:24.136Z,0.90
2022-09-02T22:03:21.083Z,1.20
2022-09-02T22:05:58.146Z,0.70
2022-09-02T22:08:36.565Z,0.93
2022-09-02T22:11:15.034Z,0.70
2022-09-02T22:13:42.094Z,0.75
2022-09-02T22:16:14.829Z,1.10
2022-09-02T22:19:02.412Z,1.00
2022-09-02T22:21:48.831Z,0.90
2022-09-02T22:24:20.151Z,0.80
2022-09-02T22:26:54.272Z,0.98
2022-09-02T22:29:49.163Z,0.88
2022-09-02T22:32:19.648Z,0.93
2022-09-02T22:35:24.883Z,0.70
2022-09-02T22:38:10.726Z,0.90
2022-09-02T22:40:48.551Z,0.85
2022-09-02T22:43:22.678Z,0.80
2022-09-02T22:46:17.241Z,0.80
2022-09-02T22:49:14.918Z,0.82
2022-09-02T22:52:08.864Z,0.98
2022-09-02T22:54:35.494Z,0.80
2022-09-02T22:57:04.804Z,0.80
2022-09-02T22:59:48.835Z,0.85
2022-09-02T23:02:30.501Z,0.80
2022-09-02T23:05:38.229Z,0.73
2022-09-02T23:08:08.791Z,0.73
2022-09-02T23:10:50.419Z,0.52
2022-09-02T23:13:41.131Z,0.98
2022-09-02T23:16:11.905Z,0.88
2022-09-02T23:19:07.964Z,0.98
2022-09-02T23:22:01.266Z,0.70
2022-09-02T23:24:45.258Z,0.68
2022-09-02T23:27:51.696Z,0.70
2022-09-02T23:30:18.284Z,0.80
2022-09-02T23:33:06.257Z,0.82
2022-09-02T23:35:45.632Z,0.75
2022-09-02T23:38:43.110Z,0.80
2022-09-02T23:41:11.984Z,0.90
2022-09-02T23:43:39.799Z,0.88
2022-09-02T23:46:21.957Z,0.80
2022-09-02T23:49:05.372Z,0.85
2022-09-02T23:51:59.766Z,0.60
2022-09-02T23:54:40.886Z,0.50
2022-09-02T23:57:50.621Z,0.65
